createdAt,value
2018-07-28T00:01:24.600Z,20.92
2018-07-28T00:03:53.746Z,20.90
2018-07-28T00:06:22.721Z,20.86
2018-07-28T00:08:51.684Z,20.83
2018-07-28T00:11:20.725Z,20.79
2018-07-28T00:13:49.704Z,20.75
2018-07-28T00:16:18.712Z,20.76
2018-07-28T00:18:47.740Z,20.76
2018-07-28T00:21:16.816Z,20.76
2018-07-28T00:23:45.776Z,20.78
2018-07-28T00:26:18.244Z,20.84
2018-07-28T00:28:48.944Z,20.91
2018-07-28T00:31:18.103Z,20.96
2018-07-28T00:33:47.502Z,21.04
2018-07-28T00:36:16.576Z,21.09
2018-07-28T00:38:45.648Z,21.15
2018-07-28T00:41:14.689Z,21.17
2018-07-28T00:43:43.716Z,21.20
2018-07-28T00:46:12.685Z,21.24
2018-07-28T00:48:41.832Z,21.30
2018-07-28T00:51:10.811Z,21.33
2018-07-28T00:53:39.849Z,21.34
2018-07-28T00:56:08.842Z,21.38
2018-07-28T00:58:37.861Z,21.42
2018-07-28T01:01:06.892Z,21.48
2018-07-28T01:03:35.857Z,21.54
2018-07-28T01:06:04.836Z,21.57
2018-07-28T01:08:33.861Z,21.60
2018-07-28T01:11:02.893Z,21.60
2018-07-28T01:13:31.862Z,21.58
2018-07-28T01:16:00.914Z,21.54
2018-07-28T01:18:29.895Z,21.53
2018-07-28T01:20:58.907Z,21.52
2018-07-28T01:23:27.947Z,21.45
2018-07-28T01:25:56.904Z,21.38
2018-07-28T01:28:25.879Z,21.30
2018-07-28T01:30:54.847Z,21.21
2018-07-28T01:33:23.835Z,21.14
2018-07-28T01:35:52.950Z,21.06
2018-07-28T01:38:22.021Z,21.00
2018-07-28T01:40:50.988Z,20.94
2018-07-28T01:43:20.017Z,20.88
2018-07-28T01:45:49.111Z,20.81
2018-07-28T01:48:18.188Z,20.72
2018-07-28T01:50:47.225Z,20.68
2018-07-28T01:53:16.187Z,20.66
2018-07-28T01:55:45.220Z,20.66
2018-07-28T01:58:14.243Z,20.52
2018-07-28T02:00:43.280Z,20.69
2018-07-28T02:03:12.284Z,20.71
2018-07-28T02:05:41.240Z,20.73
2018-07-28T02:08:10.325Z,20.79
2018-07-28T02:10:39.340Z,20.85
2018-07-28T02:13:08.311Z,20.88
2018-07-28T02:15:37.359Z,20.92
2018-07-28T02:18:06.346Z,20.92
2018-07-28T02:20:35.394Z,20.93
2018-07-28T02:23:04.551Z,20.92
2018-07-28T02:25:33.576Z,20.93
2018-07-28T02:28:02.617Z,20.95
2018-07-28T02:30:31.600Z,21.00
2018-07-28T02:33:00.568Z,21.04
2018-07-28T02:35:29.601Z,21.09
2018-07-28T02:37:58.617Z,21.09
2018-07-28T02:40:27.662Z,21.16
2018-07-28T02:42:56.677Z,21.22
2018-07-28T02:45:25.725Z,21.27
2018-07-28T02:47:54.749Z,21.33
2018-07-28T02:50:23.788Z,21.35
2018-07-28T02:52:52.869Z,21.34
2018-07-28T02:55:21.874Z,21.35
2018-07-28T02:57:50.924Z,21.36
2018-07-28T03:00:20.070Z,21.37
2018-07-28T03:02:49.037Z,21.38
2018-07-28T03:05:18.108Z,21.43
2018-07-28T03:07:47.151Z,21.42
2018-07-28T03:10:16.120Z,21.39
2018-07-28T03:12:45.173Z,21.36
2018-07-28T03:15:27.568Z,21.31
2018-07-28T03:17:56.817Z,21.28
2018-07-28T03:20:26.169Z,21.26
2018-07-28T03:22:55.220Z,21.25
2018-07-28T03:25:24.578Z,21.29
2018-07-28T03:27:53.773Z,21.36
2018-07-28T03:30:22.881Z,21.41
2018-07-28T03:32:51.905Z,21.49
2018-07-28T03:35:20.892Z,21.50
2018-07-28T03:37:49.997Z,21.53
2018-07-28T03:40:19.084Z,21.56
2018-07-28T03:42:48.160Z,21.56
2018-07-28T03:45:17.237Z,21.58
2018-07-28T03:47:46.284Z,21.62
2018-07-28T03:50:15.267Z,21.66
2018-07-28T03:52:44.422Z,21.68
2018-07-28T03:55:13.408Z,21.75
2018-07-28T03:57:42.505Z,21.81
2018-07-28T04:00:12.885Z,21.88
2018-07-28T04:02:41.948Z,21.90
2018-07-28T04:05:12.105Z,22.02
2018-07-28T04:07:41.433Z,22.12
2018-07-28T04:10:10.955Z,22.23
2018-07-28T04:12:40.410Z,22.36
2018-07-28T04:15:12.224Z,22.54
2018-07-28T04:17:52.184Z,22.71
2018-07-28T04:20:21.941Z,22.96
2018-07-28T04:22:51.064Z,23.11
2018-07-28T04:25:20.424Z,23.31
2018-07-28T04:27:49.559Z,23.48
2018-07-28T04:30:18.531Z,23.40
2018-07-28T04:32:47.579Z,23.54
2018-07-28T04:35:17.552Z,23.60
2018-07-28T04:37:46.709Z,23.53
2018-07-28T04:40:15.704Z,23.64
2018-07-28T04:42:44.760Z,23.78
2018-07-28T04:45:13.863Z,23.96
2018-07-28T04:47:42.812Z,23.88
2018-07-28T04:50:11.869Z,23.97
2018-07-28T04:52:40.896Z,24.05
2018-07-28T04:55:10.029Z,23.97
2018-07-28T04:57:39.013Z,23.94
2018-07-28T05:00:08.068Z,23.80
2018-07-28T05:02:37.130Z,23.65
2018-07-28T05:05:06.155Z,23.56
2018-07-28T05:07:35.261Z,23.55
2018-07-28T05:10:04.235Z,23.52
2018-07-28T05:12:33.270Z,23.45
2018-07-28T05:15:02.316Z,23.37
2018-07-28T05:17:31.432Z,23.23
2018-07-28T05:20:00.405Z,23.29
2018-07-28T05:22:29.391Z,23.36
2018-07-28T05:24:58.422Z,23.47
2018-07-28T05:27:27.384Z,23.49
2018-07-28T05:29:56.474Z,23.53
2018-07-28T05:32:25.436Z,23.66
2018-07-28T05:34:54.468Z,23.80
2018-07-28T05:37:23.439Z,23.95
2018-07-28T05:39:52.513Z,24.16
2018-07-28T05:42:21.567Z,24.15
2018-07-28T05:44:50.689Z,24.15
2018-07-28T05:47:19.664Z,24.10
2018-07-28T05:49:48.680Z,24.01
2018-07-28T05:52:17.716Z,24.01
2018-07-28T05:54:46.681Z,23.93
2018-07-28T05:57:15.797Z,23.92
2018-07-28T05:59:44.847Z,24.06
2018-07-28T06:02:13.927Z,24.24
2018-07-28T06:04:42.996Z,24.15
2018-07-28T06:07:12.036Z,24.32
2018-07-28T06:09:41.014Z,24.43
2018-07-28T06:12:09.982Z,24.66
2018-07-28T06:14:39.097Z,24.94
2018-07-28T06:17:08.120Z,25.08
2018-07-28T06:19:37.223Z,24.96
2018-07-28T06:22:06.269Z,24.78
2018-07-28T06:24:35.328Z,24.72
2018-07-28T06:27:04.325Z,24.72
2018-07-28T06:29:33.332Z,24.74
2018-07-28T06:32:02.408Z,24.82
2018-07-28T06:34:31.309Z,24.96
2018-07-28T06:37:00.430Z,24.95
2018-07-28T06:39:29.595Z,24.91
2018-07-28T06:41:58.642Z,25.14
2018-07-28T06:44:27.609Z,25.52
2018-07-28T06:46:56.789Z,25.80
2018-07-28T06:49:25.768Z,25.98
2018-07-28T06:51:54.852Z,26.27
2018-07-28T06:54:23.920Z,26.24
2018-07-28T06:56:53.001Z,26.24
2018-07-28T06:59:22.174Z,26.23
2018-07-28T07:01:51.277Z,26.54
2018-07-28T07:04:20.256Z,26.96
2018-07-28T07:06:49.205Z,27.35
2018-07-28T07:09:18.179Z,27.90
2018-07-28T07:11:47.245Z,28.08
2018-07-28T07:14:16.332Z,28.23
2018-07-28T07:16:45.301Z,28.45
2018-07-28T07:19:14.329Z,28.46
2018-07-28T07:21:43.299Z,28.28
2018-07-28T07:24:12.345Z,28.24
2018-07-28T07:26:41.693Z,28.42
2018-07-28T07:29:10.714Z,28.62
2018-07-28T07:31:39.738Z,28.91
2018-07-28T07:34:08.712Z,28.67
2018-07-28T07:36:37.772Z,28.46
2018-07-28T07:39:07.839Z,28.40
2018-07-28T07:41:36.875Z,28.14
2018-07-28T07:44:05.981Z,28.16
2018-07-28T07:46:34.982Z,28.20
2018-07-28T07:49:04.122Z,27.98
2018-07-28T07:51:33.206Z,27.99
2018-07-28T07:54:02.229Z,28.19
2018-07-28T07:56:31.181Z,28.10
2018-07-28T07:59:00.202Z,27.85
2018-07-28T08:01:29.271Z,27.72
2018-07-28T08:03:58.269Z,27.63
2018-07-28T08:06:27.415Z,27.97
2018-07-28T08:08:56.352Z,28.50
2018-07-28T08:11:25.320Z,29.14
2018-07-28T08:13:54.353Z,29.62
2018-07-28T08:16:23.380Z,29.80
2018-07-28T08:18:52.337Z,29.72
2018-07-28T08:21:21.368Z,29.53
2018-07-28T08:23:50.382Z,29.21
2018-07-28T08:26:19.480Z,29.16
2018-07-28T08:28:48.529Z,29.00
2018-07-28T08:31:17.520Z,28.66
2018-07-28T08:33:46.497Z,28.42
2018-07-28T08:36:15.521Z,28.37
2018-07-28T08:38:44.658Z,28.40
2018-07-28T08:41:13.622Z,28.76
2018-07-28T08:43:42.586Z,29.20
2018-07-28T08:46:11.588Z,29.54
2018-07-28T08:48:40.605Z,29.91
2018-07-28T08:51:09.629Z,30.34
2018-07-28T08:53:38.593Z,30.74
2018-07-28T08:56:07.836Z,30.83
2018-07-28T08:58:36.808Z,31.07
2018-07-28T09:01:05.831Z,31.19
2018-07-28T09:03:34.795Z,31.17
2018-07-28T09:06:03.820Z,31.29
2018-07-28T09:08:32.825Z,31.72
2018-07-28T09:11:01.815Z,31.84
2018-07-28T09:13:30.824Z,31.90
2018-07-28T09:15:59.904Z,31.84
2018-07-28T09:18:28.985Z,31.49
2018-07-28T09:20:58.038Z,31.12
2018-07-28T09:23:27.185Z,30.89
2018-07-28T09:25:56.096Z,31.03
2018-07-28T09:28:25.096Z,31.23
2018-07-28T09:30:54.097Z,31.16
2018-07-28T09:33:23.043Z,31.20
2018-07-28T09:35:52.060Z,31.35
2018-07-28T09:38:21.076Z,31.70
2018-07-28T09:40:50.181Z,31.53
2018-07-28T09:43:19.363Z,31.75
2018-07-28T09:45:48.384Z,32.18
2018-07-28T09:48:17.339Z,32.31
2018-07-28T09:50:46.361Z,32.13
2018-07-28T09:53:15.311Z,32.22
2018-07-28T09:55:44.343Z,32.27
2018-07-28T09:58:13.592Z,32.44
2018-07-28T10:00:47.709Z,32.98
2018-07-28T10:03:16.648Z,33.16
2018-07-28T10:05:46.002Z,32.60
2018-07-28T10:08:15.040Z,32.30
2018-07-28T10:10:44.257Z,32.04
2018-07-28T10:13:13.500Z,32.38
2018-07-28T10:15:42.577Z,32.78
2018-07-28T10:18:11.528Z,32.61
2018-07-28T10:20:40.500Z,32.56
2018-07-28T10:23:09.568Z,32.59
2018-07-28T10:25:38.552Z,32.41
2018-07-28T10:28:07.639Z,32.23
2018-07-28T10:30:36.689Z,32.38
2018-07-28T10:33:05.648Z,32.89
2018-07-28T10:35:34.656Z,33.37
2018-07-28T10:38:03.670Z,33.42
2018-07-28T10:40:32.757Z,33.80
2018-07-28T10:43:01.765Z,34.21
2018-07-28T10:45:30.797Z,34.16
2018-07-28T10:47:59.745Z,34.24
2018-07-28T10:50:28.767Z,34.73
2018-07-28T10:52:57.786Z,34.74
2018-07-28T10:55:26.869Z,33.94
2018-07-28T10:57:55.982Z,34.01
2018-07-28T11:00:25.058Z,34.23
2018-07-28T11:02:54.036Z,33.99
2018-07-28T11:05:22.999Z,33.32
2018-07-28T11:07:52.057Z,32.37
2018-07-28T11:10:21.006Z,31.56
2018-07-28T11:12:50.132Z,31.15
2018-07-28T11:15:19.149Z,30.70
2018-07-28T11:17:48.289Z,30.27
2018-07-28T11:20:17.252Z,30.52
2018-07-28T11:22:46.189Z,30.97
2018-07-28T11:25:15.143Z,31.76
2018-07-28T11:27:44.177Z,32.72
2018-07-28T11:30:13.258Z,34.39
2018-07-28T11:32:53.132Z,35.61
2018-07-28T11:35:33.018Z,35.31
2018-07-28T11:38:24.926Z,34.59
2018-07-28T11:41:05.028Z,33.97
2018-07-28T11:43:45.126Z,33.78
2018-07-28T11:46:14.255Z,34.27
2018-07-28T11:48:43.213Z,35.39
2018-07-28T11:51:12.248Z,36.75
2018-07-28T11:53:41.621Z,37.85
2018-07-28T11:56:10.624Z,38.70
2018-07-28T11:58:39.625Z,38.88
2018-07-28T12:01:08.644Z,39.20
2018-07-28T12:03:37.634Z,40.49
2018-07-28T12:06:06.779Z,40.99
2018-07-28T12:08:35.856Z,40.74
2018-07-28T12:11:04.872Z,40.86
2018-07-28T12:13:33.831Z,41.55
2018-07-28T12:16:02.926Z,42.32
2018-07-28T12:18:31.955Z,42.54
2018-07-28T12:21:00.940Z,42.05
2018-07-28T12:23:29.937Z,41.96
2018-07-28T12:25:58.883Z,42.36
2018-07-28T12:28:27.885Z,43.35
2018-07-28T12:30:56.904Z,43.11
2018-07-28T12:33:25.854Z,42.96
2018-07-28T12:35:55.011Z,41.67
2018-07-28T12:38:23.982Z,41.35
2018-07-28T12:40:52.930Z,41.19
2018-07-28T12:43:21.898Z,42.39
2018-07-28T12:45:50.831Z,42.48
2018-07-28T12:48:19.840Z,42.33
2018-07-28T12:50:48.780Z,41.55
2018-07-28T12:53:17.787Z,41.83
2018-07-28T12:55:46.780Z,41.83
2018-07-28T12:58:15.774Z,42.36
2018-07-28T13:00:44.736Z,42.61
2018-07-28T13:03:13.737Z,41.65
2018-07-28T13:05:42.752Z,40.68
2018-07-28T13:08:11.692Z,40.66
2018-07-28T13:10:40.725Z,41.48
2018-07-28T13:13:09.651Z,41.46
2018-07-28T13:15:38.620Z,42.06
2018-07-28T13:18:07.604Z,41.67
2018-07-28T13:20:36.694Z,41.38
2018-07-28T13:23:05.750Z,41.68
2018-07-28T13:25:34.719Z,41.61
2018-07-28T13:28:03.732Z,41.91
2018-07-28T13:30:32.684Z,41.91
2018-07-28T13:33:01.645Z,41.24
2018-07-28T13:35:30.629Z,41.41
2018-07-28T13:37:59.649Z,42.10
2018-07-28T13:40:28.684Z,42.55
2018-07-28T13:42:57.632Z,43.13
2018-07-28T13:45:26.587Z,43.25
2018-07-28T13:47:55.640Z,43.69
2018-07-28T13:50:24.601Z,43.84
2018-07-28T13:52:53.542Z,43.30
2018-07-28T13:55:22.566Z,41.46
2018-07-28T13:57:51.511Z,39.98
2018-07-28T14:00:20.519Z,38.65
2018-07-28T14:02:49.595Z,37.76
2018-07-28T14:05:18.687Z,36.46
2018-07-28T14:07:47.688Z,35.56
2018-07-28T14:10:16.715Z,34.95
2018-07-28T14:12:45.808Z,34.44
2018-07-28T14:15:14.894Z,33.93
2018-07-28T14:17:43.885Z,33.51
2018-07-28T14:20:12.899Z,33.27
2018-07-28T14:22:42.048Z,33.17
2018-07-28T14:25:11.068Z,32.72
2018-07-28T14:27:40.043Z,32.28
2018-07-28T14:30:09.021Z,32.05
2018-07-28T14:32:38.029Z,31.95
2018-07-28T14:35:07.069Z,31.85
2018-07-28T14:37:36.037Z,31.78
2018-07-28T14:40:05.016Z,31.86
2018-07-28T14:42:34.093Z,31.78
2018-07-28T14:45:03.116Z,31.73
2018-07-28T14:47:32.071Z,31.67
2018-07-28T14:50:02.028Z,31.64
2018-07-28T14:52:31.028Z,31.69
2018-07-28T14:55:00.775Z,31.65
2018-07-28T14:57:30.328Z,31.62
2018-07-28T15:00:01.651Z,31.66
2018-07-28T15:02:30.684Z,31.40
2018-07-28T15:04:59.746Z,31.38
2018-07-28T15:07:28.887Z,31.33
2018-07-28T15:10:00.344Z,31.37
2018-07-28T15:12:31.206Z,31.32
2018-07-28T15:15:00.240Z,31.39
2018-07-28T15:17:29.345Z,31.43
2018-07-28T15:19:58.321Z,31.39
2018-07-28T15:22:27.291Z,31.43
2018-07-28T15:24:56.440Z,31.43
2018-07-28T15:27:25.389Z,31.30
2018-07-28T15:29:54.363Z,31.24
2018-07-28T15:32:23.369Z,31.13
2018-07-28T15:34:52.336Z,30.96
2018-07-28T15:37:21.364Z,30.66
2018-07-28T15:39:50.542Z,30.43
2018-07-28T15:42:19.491Z,30.16
2018-07-28T15:44:48.465Z,29.99
2018-07-28T15:47:17.447Z,29.94
2018-07-28T15:49:46.717Z,29.86
2018-07-28T15:52:15.744Z,29.82
2018-07-28T15:54:45.124Z,29.79
2018-07-28T15:57:14.152Z,29.70
2018-07-28T15:59:43.186Z,29.58
2018-07-28T16:02:12.361Z,29.48
2018-07-28T16:04:41.433Z,29.37
2018-07-28T16:07:10.736Z,29.21
2018-07-28T16:09:39.927Z,28.99
2018-07-28T16:12:08.885Z,29.11
2018-07-28T16:14:37.940Z,29.03
2018-07-28T16:17:06.977Z,28.99
2018-07-28T16:19:35.964Z,28.95
2018-07-28T16:22:04.919Z,28.76
2018-07-28T16:24:33.957Z,28.65
2018-07-28T16:27:03.038Z,28.55
2018-07-28T16:29:32.004Z,28.46
2018-07-28T16:32:01.382Z,28.40
2018-07-28T16:34:31.413Z,28.35
2018-07-28T16:37:00.673Z,28.31
2018-07-28T16:39:29.650Z,28.20
2018-07-28T16:41:58.621Z,28.14
2018-07-28T16:44:27.617Z,28.13
2018-07-28T16:46:56.654Z,28.10
2018-07-28T16:49:25.692Z,28.07
2018-07-28T16:51:54.720Z,28.05
2018-07-28T16:54:23.874Z,28.06
2018-07-28T16:56:52.911Z,28.03
2018-07-28T16:59:21.991Z,28.01
2018-07-28T17:01:51.099Z,28.00
2018-07-28T17:04:20.135Z,27.92
2018-07-28T17:06:49.201Z,27.91
2018-07-28T17:09:18.228Z,27.87
2018-07-28T17:11:47.192Z,27.82
2018-07-28T17:14:16.298Z,27.79
2018-07-28T17:16:45.426Z,27.80
2018-07-28T17:19:14.416Z,27.77
2018-07-28T17:21:43.392Z,27.70
2018-07-28T17:24:12.403Z,27.60
2018-07-28T17:26:41.421Z,27.53
2018-07-28T17:29:10.426Z,27.44
2018-07-28T17:31:39.449Z,27.28
2018-07-28T17:34:08.439Z,27.14
2018-07-28T17:36:37.537Z,27.08
2018-07-28T17:39:08.191Z,27.02
2018-07-28T17:41:37.212Z,26.97
2018-07-28T17:44:06.232Z,26.93
2018-07-28T17:46:35.278Z,26.89
2018-07-28T17:49:04.411Z,26.78
2018-07-28T17:51:33.557Z,26.78
2018-07-28T17:54:02.522Z,26.67
2018-07-28T17:56:31.554Z,26.58
2018-07-28T17:59:00.585Z,26.47
2018-07-28T18:01:29.659Z,26.43
2018-07-28T18:03:58.601Z,26.40
2018-07-28T18:06:27.633Z,26.38
2018-07-28T18:08:56.598Z,26.28
2018-07-28T18:11:25.548Z,26.26
2018-07-28T18:13:54.527Z,26.21
2018-07-28T18:16:23.561Z,26.16
2018-07-28T18:18:52.623Z,26.13
2018-07-28T18:21:21.642Z,26.12
2018-07-28T18:23:50.637Z,26.11
2018-07-28T18:26:19.652Z,26.11
2018-07-28T18:28:48.708Z,26.14
2018-07-28T18:31:17.749Z,26.10
2018-07-28T18:33:46.724Z,26.06
2018-07-28T18:36:15.679Z,26.05
2018-07-28T18:38:44.713Z,26.08
2018-07-28T18:41:13.691Z,26.00
2018-07-28T18:43:42.676Z,25.69
2018-07-28T18:46:11.799Z,25.46
2018-07-28T18:48:40.824Z,25.23
2018-07-28T18:51:09.957Z,25.03
2018-07-28T18:53:38.983Z,24.90
2018-07-28T18:56:08.105Z,24.77
2018-07-28T18:58:37.142Z,24.62
2018-07-28T19:01:06.336Z,24.50
2018-07-28T19:03:35.427Z,24.43
2018-07-28T19:06:04.456Z,24.31
2018-07-28T19:08:33.495Z,24.17
2018-07-28T19:11:02.540Z,24.04
2018-07-28T19:13:36.489Z,23.95
2018-07-28T19:16:05.668Z,23.88
2018-07-28T19:18:39.701Z,23.82
2018-07-28T19:21:08.728Z,23.66
2018-07-28T19:23:42.696Z,23.69
2018-07-28T19:26:11.769Z,23.61
2018-07-28T19:28:45.842Z,23.55
2018-07-28T19:31:14.886Z,23.47
2018-07-28T19:33:43.876Z,23.40
2018-07-28T19:36:18.023Z,23.32
2018-07-28T19:38:47.005Z,23.27
2018-07-28T19:41:15.992Z,23.24
2018-07-28T19:43:45.015Z,23.21
2018-07-28T19:46:14.075Z,23.16
2018-07-28T19:48:43.157Z,23.14
2018-07-28T19:51:12.270Z,23.12
2018-07-28T19:53:41.306Z,23.08
2018-07-28T19:56:10.337Z,23.03
2018-07-28T19:58:39.368Z,23.02
2018-07-28T20:01:08.508Z,22.99
2018-07-28T20:03:37.579Z,22.97
2018-07-28T20:06:06.661Z,22.97
2018-07-28T20:08:35.647Z,22.94
2018-07-28T20:11:04.647Z,22.92
2018-07-28T20:13:33.621Z,22.91
2018-07-28T20:16:02.616Z,22.89
2018-07-28T20:18:31.696Z,22.90
2018-07-28T20:21:00.666Z,22.89
2018-07-28T20:23:29.728Z,22.90
2018-07-28T20:25:58.821Z,22.91
2018-07-28T20:28:27.941Z,22.91
2018-07-28T20:30:56.980Z,22.93
2018-07-28T20:33:26.017Z,22.97
2018-07-28T20:35:55.048Z,22.98
2018-07-28T20:38:24.525Z,22.98
2018-07-28T20:40:53.504Z,22.96
2018-07-28T20:43:22.480Z,23.00
2018-07-28T20:45:51.503Z,23.00
2018-07-28T20:48:20.613Z,23.05
2018-07-28T20:50:49.583Z,23.04
2018-07-28T20:53:18.576Z,23.07
2018-07-28T20:55:47.653Z,23.04
2018-07-28T20:58:16.658Z,23.03
2018-07-28T21:00:45.758Z,22.98
2018-07-28T21:03:14.863Z,22.99
2018-07-28T21:05:43.895Z,22.99
2018-07-28T21:08:12.932Z,22.97
2018-07-28T21:10:41.972Z,22.93
2018-07-28T21:13:10.952Z,22.98
2018-07-28T21:15:40.000Z,22.96
2018-07-28T21:18:09.154Z,22.93
2018-07-28T21:20:38.362Z,22.91
2018-07-28T21:23:07.404Z,22.86
2018-07-28T21:25:36.438Z,22.81
2018-07-28T21:28:05.611Z,22.77
2018-07-28T21:30:34.676Z,22.76
2018-07-28T21:33:03.671Z,22.78
2018-07-28T21:35:32.807Z,22.74
2018-07-28T21:38:01.774Z,22.71
2018-07-28T21:40:30.756Z,22.69
2018-07-28T21:42:59.787Z,22.67
2018-07-28T21:45:28.818Z,22.68
2018-07-28T21:47:57.804Z,22.65
2018-07-28T21:50:26.776Z,22.65
2018-07-28T21:52:55.795Z,22.66
2018-07-28T21:55:24.773Z,22.67
2018-07-28T21:57:53.878Z,22.67
2018-07-28T22:00:22.867Z,22.63
2018-07-28T22:02:51.856Z,22.61
2018-07-28T22:05:21.354Z,22.59
2018-07-28T22:07:51.804Z,22.57
2018-07-28T22:10:20.757Z,22.58
2018-07-28T22:12:49.720Z,22.59
2018-07-28T22:15:18.712Z,22.59
2018-07-28T22:17:47.693Z,22.60
2018-07-28T22:20:16.672Z,22.56
2018-07-28T22:22:45.638Z,22.56
2018-07-28T22:25:14.666Z,22.57
2018-07-28T22:27:43.699Z,22.54
2018-07-28T22:30:12.684Z,22.53
2018-07-28T22:32:41.712Z,22.50
2018-07-28T22:35:10.922Z,22.51
2018-07-28T22:37:40.009Z,22.50
2018-07-28T22:40:09.049Z,22.50
2018-07-28T22:42:46.345Z,22.51
2018-07-28T22:45:15.345Z,22.52
2018-07-28T22:47:44.432Z,22.50
2018-07-28T22:50:13.469Z,22.52
2018-07-28T22:52:42.682Z,22.55
2018-07-28T22:55:11.699Z,22.55
2018-07-28T22:57:40.684Z,22.54
2018-07-28T23:00:09.755Z,22.57
2018-07-28T23:02:38.825Z,22.58
2018-07-28T23:05:08.433Z,22.60
2018-07-28T23:07:37.529Z,22.60
2018-07-28T23:10:06.661Z,22.62
2018-07-28T23:12:35.737Z,22.63
2018-07-28T23:15:04.777Z,22.64
2018-07-28T23:17:33.847Z,22.65
2018-07-28T23:20:02.909Z,22.67
2018-07-28T23:22:31.937Z,22.71
2018-07-28T23:25:01.023Z,22.75
2018-07-28T23:27:30.025Z,22.77
2018-07-28T23:29:59.081Z,22.83
2018-07-28T23:32:28.169Z,22.85
2018-07-28T23:34:57.213Z,22.87
2018-07-28T23:37:26.261Z,22.89
2018-07-28T23:39:55.232Z,22.91
2018-07-28T23:42:24.228Z,22.93
2018-07-28T23:44:53.204Z,22.95
2018-07-28T23:47:22.254Z,22.94
2018-07-28T23:49:51.280Z,22.91
2018-07-28T23:52:20.394Z,22.88
2018-07-28T23:54:49.436Z,22.81
2018-07-28T23:57:18.505Z,22.75
2018-07-28T23:59:47.491Z,22.70
